createdAt,value
2023-02-21T00:00:33.938Z,100.00
2023-02-21T00:03:19.105Z,100.00
2023-02-21T00:06:04.366Z,100.00
2023-02-21T00:08:49.662Z,100.00
2023-02-21T00:11:34.971Z,100.00
2023-02-21T00:14:20.244Z,100.00
2023-02-21T00:17:05.464Z,100.00
2023-02-21T00:19:50.841Z,100.00
2023-02-21T00:22:35.907Z,100.00
2023-02-21T00:25:21.003Z,100.00
2023-02-21T00:28:06.254Z,100.00
2023-02-21T00:30:51.438Z,100.00
2023-02-21T00:33:36.660Z,100.00
2023-02-21T00:36:22.339Z,100.00
2023-02-21T00:39:07.522Z,100.00
2023-02-21T00:41:53.011Z,100.00
2023-02-21T00:44:38.244Z,100.00
2023-02-21T00:47:23.738Z,100.00
2023-02-21T00:50:09.165Z,100.00
2023-02-21T00:52:54.362Z,100.00
2023-02-21T00:55:39.625Z,100.00
2023-02-21T00:58:24.708Z,100.00
2023-02-21T01:01:10.027Z,100.00
2023-02-21T01:03:55.160Z,100.00
2023-02-21T01:06:40.388Z,100.00
2023-02-21T01:09:25.540Z,100.00
2023-02-21T01:12:11.048Z,100.00
2023-02-21T01:14:56.275Z,100.00
2023-02-21T01:17:44.331Z,100.00
2023-02-21T01:20:29.479Z,100.00
2023-02-21T01:23:15.653Z,100.00
2023-02-21T01:26:00.802Z,100.00
2023-02-21T01:28:46.912Z,100.00
2023-02-21T01:31:36.717Z,100.00
2023-02-21T01:34:21.698Z,100.00
2023-02-21T01:37:07.033Z,100.00
2023-02-21T01:39:52.767Z,100.00
2023-02-21T01:42:39.411Z,100.00
2023-02-21T01:46:22.589Z,100.00
2023-02-21T01:49:11.956Z,100.00
2023-02-21T01:51:59.441Z,100.00
2023-02-21T01:54:48.071Z,100.00
2023-02-21T01:57:34.332Z,100.00
2023-02-21T02:00:22.990Z,100.00
2023-02-21T02:03:15.092Z,100.00
2023-02-21T02:06:03.224Z,100.00
2023-02-21T02:08:50.047Z,100.00
2023-02-21T02:12:05.756Z,100.00
2023-02-21T02:14:51.090Z,100.00
2023-02-21T02:17:40.153Z,100.00
2023-02-21T02:20:43.772Z,100.00
2023-02-21T02:23:25.284Z,100.00
2023-02-21T02:26:19.488Z,100.00
2023-02-21T02:29:25.422Z,100.00
2023-02-21T02:32:02.343Z,100.00
2023-02-21T02:34:31.988Z,100.00
2023-02-21T02:37:18.626Z,100.00
2023-02-21T02:40:13.848Z,100.00
2023-02-21T02:42:40.363Z,100.00
2023-02-21T02:45:39.147Z,100.00
2023-02-21T02:48:16.568Z,100.00
2023-02-21T02:50:47.266Z,100.00
2023-02-21T02:53:19.688Z,100.00
2023-02-21T02:55:58.785Z,100.00
2023-02-21T02:58:31.620Z,100.00
2023-02-21T03:01:26.280Z,100.00
2023-02-21T03:04:05.612Z,100.00
2023-02-21T03:06:54.078Z,100.00
2023-02-21T03:09:26.010Z,100.00
2023-02-21T03:12:08.696Z,100.00
2023-02-21T03:14:42.905Z,100.00
2023-02-21T03:17:13.536Z,100.00
2023-02-21T03:19:44.027Z,100.00
2023-02-21T03:22:17.998Z,100.00
2023-02-21T03:24:48.198Z,100.00
2023-02-21T03:27:17.673Z,100.00
2023-02-21T03:30:03.175Z,100.00
2023-02-21T03:32:37.672Z,100.00
2023-02-21T03:35:05.956Z,100.00
2023-02-21T03:37:35.330Z,100.00
2023-02-21T03:40:03.204Z,100.00
2023-02-21T03:42:32.648Z,100.00
2023-02-21T03:44:59.325Z,100.00
2023-02-21T03:47:26.586Z,100.00
2023-02-21T03:49:53.393Z,100.00
2023-02-21T03:52:20.899Z,100.00
2023-02-21T03:54:48.221Z,100.00
2023-02-21T03:57:17.870Z,100.00
2023-02-21T03:59:46.367Z,100.00
2023-02-21T04:02:15.058Z,100.00
2023-02-21T04:04:42.221Z,100.00
2023-02-21T04:07:13.082Z,100.00
2023-02-21T04:09:39.776Z,100.00
2023-02-21T04:12:08.332Z,100.00
2023-02-21T04:14:37.488Z,100.00
2023-02-21T04:17:04.213Z,100.00
2023-02-21T04:19:31.406Z,100.00
2023-02-21T04:21:58.091Z,100.00
2023-02-21T04:24:25.739Z,100.00
2023-02-21T04:26:52.575Z,100.00
2023-02-21T04:29:19.945Z,100.00
2023-02-21T04:31:46.799Z,100.00
2023-02-21T04:34:16.293Z,100.00
2023-02-21T04:36:44.392Z,100.00
2023-02-21T04:39:11.149Z,100.00
2023-02-21T04:41:38.422Z,100.00
2023-02-21T04:44:06.282Z,100.00
2023-02-21T04:46:34.192Z,100.00
2023-02-21T04:49:01.479Z,100.00
2023-02-21T04:51:28.102Z,100.00
2023-02-21T04:53:55.703Z,100.00
2023-02-21T04:56:25.250Z,100.00
2023-02-21T04:58:51.913Z,100.00
2023-02-21T05:01:20.776Z,100.00
2023-02-21T05:03:48.278Z,100.00
2023-02-21T05:06:21.877Z,100.00
2023-02-21T05:08:49.059Z,100.00
2023-02-21T05:11:16.806Z,100.00
2023-02-21T05:13:44.003Z,100.00
2023-02-21T05:16:10.795Z,100.00
2023-02-21T05:18:38.564Z,100.00
2023-02-21T05:21:08.384Z,100.00
2023-02-21T05:23:36.681Z,100.00
2023-02-21T05:26:11.716Z,100.00
2023-02-21T05:28:39.644Z,100.00
2023-02-21T05:31:07.219Z,100.00
2023-02-21T05:33:34.024Z,100.00
2023-02-21T05:36:00.639Z,100.00
2023-02-21T05:38:27.593Z,100.00
2023-02-21T05:40:54.382Z,100.00
2023-02-21T05:43:21.066Z,100.00
2023-02-21T05:45:47.713Z,100.00
2023-02-21T05:48:14.740Z,100.00
2023-02-21T05:50:41.386Z,100.00
2023-02-21T05:53:10.433Z,100.00
2023-02-21T05:55:37.652Z,100.00
2023-02-21T05:58:04.710Z,100.00
2023-02-21T06:00:32.118Z,100.00
2023-02-21T06:03:00.034Z,100.00
2023-02-21T06:05:26.885Z,100.00
2023-02-21T06:07:55.452Z,100.00
2023-02-21T06:10:22.236Z,100.00
2023-02-21T06:12:49.626Z,100.00
2023-02-21T06:15:16.798Z,100.00
2023-02-21T06:17:45.209Z,100.00
2023-02-21T06:20:15.144Z,100.00
2023-02-21T06:22:41.872Z,100.00
2023-02-21T06:25:10.055Z,100.00
2023-02-21T06:27:37.299Z,100.00
2023-02-21T06:30:06.046Z,100.00
2023-02-21T06:32:33.120Z,100.00
2023-02-21T06:35:00.202Z,100.00
2023-02-21T06:41:15.680Z,100.00
2023-02-21T06:43:42.590Z,100.00
2023-02-21T06:46:09.266Z,100.00
2023-02-21T06:48:36.479Z,100.00
2023-02-21T06:51:05.496Z,100.00
2023-02-21T06:53:32.736Z,100.00
2023-02-21T06:55:59.384Z,100.00
2023-02-21T06:58:26.032Z,100.00
2023-02-21T07:00:52.662Z,100.00
2023-02-21T07:03:19.256Z,100.00
2023-02-21T07:05:46.169Z,100.00
2023-02-21T07:08:12.842Z,100.00
2023-02-21T07:10:39.872Z,100.00
2023-02-21T07:13:06.469Z,100.00
2023-02-21T07:15:33.091Z,100.00
2023-02-21T07:17:59.698Z,100.00
2023-02-21T07:20:26.335Z,100.00
2023-02-21T07:22:53.260Z,100.00
2023-02-21T07:25:22.242Z,100.00
2023-02-21T07:27:49.729Z,100.00
2023-02-21T07:30:17.414Z,100.00
2023-02-21T07:35:11.360Z,98.74
2023-02-21T07:37:38.040Z,95.34
2023-02-21T07:40:07.214Z,91.43
2023-02-21T07:42:34.299Z,89.52
2023-02-21T07:45:00.935Z,87.35
2023-02-21T07:47:28.343Z,84.31
2023-02-21T07:49:55.290Z,79.75
2023-02-21T07:52:22.567Z,73.21
2023-02-21T07:54:49.289Z,69.41
2023-02-21T07:57:16.946Z,69.83
2023-02-21T07:59:44.288Z,64.57
2023-02-21T08:02:14.001Z,63.66
2023-02-21T08:04:40.995Z,62.19
2023-02-21T08:07:08.950Z,60.37
2023-02-21T08:09:36.551Z,60.30
2023-02-21T08:12:03.800Z,60.31
2023-02-21T08:14:30.381Z,56.32
2023-02-21T08:16:56.976Z,55.09
2023-02-21T08:19:26.071Z,53.26
2023-02-21T08:21:52.704Z,49.06
2023-02-21T08:24:19.797Z,44.99
2023-02-21T08:26:49.399Z,40.42
2023-02-21T08:29:18.018Z,37.06
2023-02-21T08:31:45.093Z,36.01
2023-02-21T08:34:12.364Z,36.06
2023-02-21T08:36:42.036Z,35.71
2023-02-21T08:39:09.513Z,33.59
2023-02-21T08:41:45.009Z,30.51
2023-02-21T08:44:16.252Z,28.32
2023-02-21T08:46:43.968Z,28.65
2023-02-21T08:49:10.723Z,28.46
2023-02-21T08:51:38.409Z,27.62
2023-02-21T08:54:05.041Z,29.29
2023-02-21T08:56:31.976Z,27.89
2023-02-21T08:58:59.250Z,25.52
2023-02-21T09:01:32.910Z,25.09
2023-02-21T09:03:59.659Z,24.95
2023-02-21T09:06:26.322Z,27.15
2023-02-21T09:08:52.902Z,26.07
2023-02-21T09:11:19.527Z,25.17
2023-02-21T09:13:46.132Z,23.35
2023-02-21T09:16:12.905Z,24.46
2023-02-21T09:18:39.582Z,23.37
2023-02-21T09:21:07.198Z,22.45
2023-02-21T09:23:33.796Z,23.77
2023-02-21T09:26:00.421Z,20.97
2023-02-21T09:28:27.053Z,22.02
2023-02-21T09:30:53.657Z,21.32
2023-02-21T09:33:20.257Z,22.27
2023-02-21T09:35:46.901Z,19.97
2023-02-21T09:38:13.535Z,20.39
2023-02-21T09:40:44.217Z,18.87
2023-02-21T09:43:18.753Z,18.90
2023-02-21T09:45:46.200Z,18.91
2023-02-21T09:48:20.049Z,19.06
2023-02-21T09:50:50.157Z,19.44
2023-02-21T09:53:22.313Z,20.86
2023-02-21T09:55:52.538Z,19.93
2023-02-21T09:58:20.601Z,20.61
2023-02-21T10:00:47.930Z,19.58
2023-02-21T10:03:20.502Z,19.85
2023-02-21T10:05:53.296Z,19.73
2023-02-21T10:08:37.231Z,19.24
2023-02-21T10:11:41.233Z,18.47
2023-02-21T10:14:10.732Z,18.48
2023-02-21T10:16:43.513Z,17.94
2023-02-21T10:19:19.480Z,19.10
2023-02-21T10:21:48.847Z,19.24
2023-02-21T10:24:21.779Z,18.73
2023-02-21T10:27:07.934Z,18.50
2023-02-21T10:29:49.465Z,18.01
2023-02-21T10:32:16.384Z,18.32
2023-02-21T10:34:47.403Z,18.43
2023-02-21T10:37:36.840Z,19.01
2023-02-21T10:40:38.447Z,17.46
2023-02-21T10:43:17.456Z,18.01
2023-02-21T10:45:59.024Z,17.30
2023-02-21T10:48:31.242Z,15.95
2023-02-21T10:50:57.818Z,16.27
2023-02-21T10:53:36.675Z,15.63
2023-02-21T10:56:25.489Z,14.73
2023-02-21T10:59:05.491Z,14.58
2023-02-21T11:01:46.284Z,13.42
2023-02-21T11:04:22.580Z,13.54
2023-02-21T11:06:56.871Z,13.96
2023-02-21T11:09:32.992Z,15.52
2023-02-21T11:12:04.436Z,13.18
2023-02-21T11:14:33.575Z,13.63
2023-02-21T11:17:14.321Z,13.68
2023-02-21T11:20:13.541Z,13.79
2023-02-21T11:22:43.100Z,13.96
2023-02-21T11:25:29.774Z,14.94
2023-02-21T11:28:04.054Z,14.34
2023-02-21T11:30:34.695Z,13.94
2023-02-21T11:33:02.708Z,13.78
2023-02-21T11:35:33.351Z,14.16
2023-02-21T11:38:03.103Z,13.75
2023-02-21T11:40:42.124Z,14.91
2023-02-21T11:43:30.881Z,15.71
2023-02-21T11:46:21.479Z,13.71
2023-02-21T11:49:19.150Z,13.53
2023-02-21T11:51:58.662Z,13.74
2023-02-21T11:54:30.006Z,13.82
2023-02-21T11:57:08.861Z,13.81
2023-02-21T11:59:42.748Z,14.21
2023-02-21T12:02:36.824Z,14.26
2023-02-21T12:05:06.137Z,14.55
2023-02-21T12:07:38.441Z,13.96
2023-02-21T12:10:27.493Z,13.85
2023-02-21T12:13:09.248Z,13.60
2023-02-21T12:15:44.644Z,14.00
2023-02-21T12:18:55.789Z,13.53
2023-02-21T12:22:01.589Z,14.71
2023-02-21T12:25:00.589Z,12.90
2023-02-21T12:27:39.277Z,12.18
2023-02-21T12:30:27.074Z,12.76
2023-02-21T12:33:04.996Z,13.17
2023-02-21T12:35:40.590Z,13.55
2023-02-21T12:38:25.244Z,14.04
2023-02-21T12:40:51.821Z,13.27
2023-02-21T12:43:40.464Z,12.74
2023-02-21T12:46:13.294Z,12.41
2023-02-21T12:49:03.190Z,13.75
2023-02-21T12:51:42.566Z,12.97
2023-02-21T12:54:30.874Z,13.25
2023-02-21T12:57:05.242Z,14.18
2023-02-21T12:59:50.427Z,13.77
2023-02-21T13:02:25.975Z,13.10
2023-02-21T13:04:54.629Z,13.04
2023-02-21T13:08:03.640Z,12.61
2023-02-21T13:10:52.164Z,12.53
2023-02-21T13:13:25.713Z,13.42
2023-02-21T13:15:54.133Z,13.26
2023-02-21T13:18:33.668Z,13.55
2023-02-21T13:21:30.901Z,13.69
2023-02-21T13:24:04.239Z,14.59
2023-02-21T13:26:46.029Z,14.33
2023-02-21T13:29:25.402Z,14.90
2023-02-21T13:32:22.156Z,12.99
2023-02-21T13:34:59.363Z,12.70
2023-02-21T13:37:33.237Z,13.29
2023-02-21T13:40:35.741Z,12.64
2023-02-21T13:43:12.621Z,12.83
2023-02-21T13:45:39.493Z,12.58
2023-02-21T13:48:06.056Z,12.78
2023-02-21T13:50:39.320Z,12.79
2023-02-21T13:53:09.142Z,12.82
2023-02-21T13:55:37.118Z,11.88
2023-02-21T13:58:05.325Z,12.63
2023-02-21T14:00:32.024Z,12.95
2023-02-21T14:03:06.281Z,12.37
2023-02-21T14:05:45.020Z,12.42
2023-02-21T14:08:31.574Z,13.22
2023-02-21T14:11:13.763Z,12.73
2023-02-21T14:14:02.173Z,13.65
2023-02-21T14:16:40.893Z,13.72
2023-02-21T14:19:11.295Z,14.51
2023-02-21T14:21:49.243Z,14.89
2023-02-21T14:24:25.812Z,14.30
2023-02-21T14:26:52.973Z,13.83
2023-02-21T14:30:07.001Z,13.31
2023-02-21T14:32:50.004Z,14.84
2023-02-21T14:35:16.562Z,14.63
2023-02-21T14:38:03.347Z,14.30
2023-02-21T14:40:42.205Z,15.27
2023-02-21T14:43:21.928Z,14.62
2023-02-21T14:46:12.787Z,13.88
2023-02-21T14:49:01.945Z,14.17
2023-02-21T14:52:07.379Z,14.84
2023-02-21T14:55:15.884Z,14.51
2023-02-21T14:58:10.525Z,14.24
2023-02-21T15:00:56.553Z,13.61
2023-02-21T15:03:29.349Z,13.54
2023-02-21T15:06:14.076Z,13.89
2023-02-21T15:08:46.760Z,15.40
2023-02-21T15:11:27.931Z,15.27
2023-02-21T15:14:24.064Z,17.16
2023-02-21T15:16:58.177Z,18.83
2023-02-21T15:19:34.123Z,19.22
2023-02-21T15:22:13.839Z,18.06
2023-02-21T15:24:40.616Z,19.06
2023-02-21T15:27:14.067Z,19.31
2023-02-21T15:29:41.552Z,17.58
2023-02-21T15:32:12.546Z,18.11
2023-02-21T15:34:43.257Z,21.13
2023-02-21T15:37:27.942Z,21.73
2023-02-21T15:39:58.823Z,22.37
2023-02-21T15:42:27.237Z,24.12
2023-02-21T15:45:07.560Z,22.17
2023-02-21T15:47:35.797Z,23.53
2023-02-21T15:50:17.258Z,24.38
2023-02-21T15:52:51.837Z,24.32
2023-02-21T15:55:18.461Z,25.13
2023-02-21T15:58:08.032Z,26.38
2023-02-21T16:00:41.840Z,26.94
2023-02-21T16:03:38.828Z,27.31
2023-02-21T16:06:32.409Z,27.48
2023-02-21T16:09:07.540Z,28.35
2023-02-21T16:11:43.242Z,28.59
2023-02-21T16:14:26.255Z,28.91
2023-02-21T16:17:09.431Z,29.93
2023-02-21T16:19:36.800Z,29.53
2023-02-21T16:22:24.392Z,30.19
2023-02-21T16:25:12.271Z,29.81
2023-02-21T16:27:41.637Z,30.55
2023-02-21T16:30:20.429Z,31.49
2023-02-21T16:32:49.722Z,33.31
2023-02-21T16:35:23.673Z,32.56
2023-02-21T16:37:54.312Z,32.25
2023-02-21T16:40:39.066Z,32.98
2023-02-21T16:43:05.744Z,34.04
2023-02-21T16:45:33.162Z,35.09
2023-02-21T16:48:05.730Z,34.94
2023-02-21T16:50:35.359Z,37.00
2023-02-21T16:53:02.326Z,36.88
2023-02-21T16:55:29.698Z,36.91
2023-02-21T16:58:01.494Z,37.20
2023-02-21T17:00:28.712Z,37.80
2023-02-21T17:02:55.417Z,37.89
2023-02-21T17:05:22.340Z,38.79
2023-02-21T17:07:49.904Z,38.94
2023-02-21T17:10:16.521Z,39.37
2023-02-21T17:12:44.052Z,39.57
2023-02-21T17:15:11.078Z,39.83
2023-02-21T17:17:38.434Z,42.31
2023-02-21T17:20:06.394Z,41.59
2023-02-21T17:22:33.313Z,41.83
2023-02-21T17:25:00.173Z,42.01
2023-02-21T17:27:26.811Z,42.74
2023-02-21T17:29:53.516Z,43.00
2023-02-21T17:32:20.217Z,43.25
2023-02-21T17:34:46.805Z,43.40
2023-02-21T17:37:13.468Z,43.90
2023-02-21T17:39:40.058Z,43.35
2023-02-21T17:42:07.534Z,43.62
2023-02-21T17:44:34.206Z,43.72
2023-02-21T17:47:01.819Z,44.50
2023-02-21T17:49:28.766Z,44.68
2023-02-21T17:51:55.417Z,44.08
2023-02-21T17:54:24.515Z,43.79
2023-02-21T17:56:51.994Z,46.41
2023-02-21T17:59:19.641Z,47.42
2023-02-21T18:01:46.755Z,46.42
2023-02-21T18:04:14.456Z,46.95
2023-02-21T18:06:42.244Z,46.61
2023-02-21T18:09:09.734Z,47.98
2023-02-21T18:11:36.871Z,47.77
2023-02-21T18:14:05.672Z,48.12
2023-02-21T18:16:32.331Z,48.59
2023-02-21T18:18:59.569Z,48.36
2023-02-21T18:21:27.785Z,48.45
2023-02-21T18:23:55.442Z,48.94
2023-02-21T18:26:23.051Z,49.16
2023-02-21T18:28:50.085Z,49.84
2023-02-21T18:31:19.487Z,50.76
2023-02-21T18:33:47.049Z,51.83
2023-02-21T18:36:14.659Z,53.00
2023-02-21T18:38:41.756Z,53.38
2023-02-21T18:41:15.023Z,53.83
2023-02-21T18:43:44.360Z,52.44
2023-02-21T18:46:15.028Z,52.18
2023-02-21T18:48:44.296Z,53.14
2023-02-21T18:51:13.921Z,53.79
2023-02-21T18:53:44.248Z,54.33
2023-02-21T18:56:14.173Z,54.69
2023-02-21T18:58:41.631Z,55.52
2023-02-21T19:01:11.466Z,54.63
2023-02-21T19:03:40.608Z,55.28
2023-02-21T19:06:16.563Z,56.70
2023-02-21T19:08:46.560Z,57.01
2023-02-21T19:11:15.127Z,57.34
2023-02-21T19:13:47.143Z,57.93
2023-02-21T19:16:14.571Z,58.22
2023-02-21T19:18:41.322Z,57.13
2023-02-21T19:21:12.448Z,57.66
2023-02-21T19:23:40.641Z,58.84
2023-02-21T19:26:08.547Z,58.93
2023-02-21T19:28:37.418Z,58.72
2023-02-21T19:31:04.830Z,59.27
2023-02-21T19:33:31.482Z,59.38
2023-02-21T19:35:58.654Z,59.61
2023-02-21T19:38:25.251Z,61.18
2023-02-21T19:40:52.524Z,62.63
2023-02-21T19:43:19.228Z,63.27
2023-02-21T19:45:45.996Z,63.33
2023-02-21T19:48:12.600Z,63.16
2023-02-21T19:50:41.290Z,64.58
2023-02-21T19:53:08.737Z,64.96
2023-02-21T19:55:35.383Z,64.91
2023-02-21T19:58:06.862Z,66.56
2023-02-21T20:00:34.812Z,68.14
2023-02-21T20:03:03.560Z,68.37
2023-02-21T20:05:30.964Z,69.17
2023-02-21T20:07:59.173Z,69.29
2023-02-21T20:10:25.881Z,70.01
2023-02-21T20:12:58.573Z,69.16
2023-02-21T20:15:25.441Z,70.22
2023-02-21T20:17:53.994Z,70.22
2023-02-21T20:20:21.883Z,71.77
2023-02-21T20:22:48.573Z,73.56
2023-02-21T20:25:16.136Z,73.15
2023-02-21T20:27:42.815Z,74.04
2023-02-21T20:30:10.575Z,75.27
2023-02-21T20:32:37.706Z,74.79
2023-02-21T20:35:04.805Z,75.22
2023-02-21T20:37:33.178Z,74.58
2023-02-21T20:40:01.971Z,76.32
2023-02-21T20:42:29.664Z,75.66
2023-02-21T20:44:56.887Z,75.83
2023-02-21T20:47:24.319Z,75.89
2023-02-21T20:49:51.631Z,76.00
2023-02-21T20:52:19.012Z,77.47
2023-02-21T20:54:46.024Z,78.87
2023-02-21T20:57:13.478Z,79.65
2023-02-21T20:59:40.188Z,79.77
2023-02-21T21:02:08.326Z,78.84
2023-02-21T21:04:41.007Z,78.65
2023-02-21T21:07:12.910Z,78.45
2023-02-21T21:09:40.765Z,77.13
2023-02-21T21:12:18.153Z,77.23
2023-02-21T21:14:47.646Z,77.39
2023-02-21T21:17:17.407Z,77.88
2023-02-21T21:19:47.929Z,78.02
2023-02-21T21:22:22.472Z,78.49
2023-02-21T21:24:51.084Z,78.96
2023-02-21T21:27:18.458Z,79.09
2023-02-21T21:29:45.721Z,79.87
2023-02-21T21:32:16.614Z,78.74
2023-02-21T21:34:45.667Z,80.02
2023-02-21T21:37:14.552Z,82.26
2023-02-21T21:39:45.553Z,80.53
2023-02-21T21:42:17.035Z,81.40
2023-02-21T21:44:48.530Z,82.69
2023-02-21T21:47:16.363Z,85.96
2023-02-21T21:49:43.711Z,86.01
2023-02-21T21:52:10.883Z,85.45
2023-02-21T21:54:41.796Z,88.81
2023-02-21T21:57:08.402Z,88.16
2023-02-21T21:59:38.294Z,87.07
2023-02-21T22:02:05.137Z,87.44
2023-02-21T22:04:33.230Z,88.54
2023-02-21T22:06:59.993Z,90.27
2023-02-21T22:09:27.962Z,91.28
2023-02-21T22:11:54.970Z,90.87
2023-02-21T22:14:23.398Z,91.21
2023-02-21T22:16:52.212Z,91.38
2023-02-21T22:19:21.409Z,91.44
2023-02-21T22:21:48.613Z,90.82
2023-02-21T22:24:20.653Z,90.09
2023-02-21T22:26:53.782Z,90.17
2023-02-21T22:29:22.701Z,90.62
2023-02-21T22:31:52.188Z,91.95
2023-02-21T22:34:26.053Z,91.61
2023-02-21T22:36:55.506Z,92.08
2023-02-21T22:39:24.588Z,92.76
2023-02-21T22:41:52.199Z,92.62
2023-02-21T22:44:19.859Z,92.68
2023-02-21T22:46:58.945Z,93.19
2023-02-21T22:49:27.092Z,94.73
2023-02-21T22:51:54.271Z,94.98
2023-02-21T22:54:21.198Z,96.87
2023-02-21T22:56:53.127Z,97.38
2023-02-21T22:59:24.298Z,97.05
2023-02-21T23:01:51.157Z,95.76
2023-02-21T23:04:26.246Z,94.39
2023-02-21T23:06:58.218Z,93.95
2023-02-21T23:09:27.668Z,94.39
2023-02-21T23:11:59.299Z,93.71
2023-02-21T23:14:27.764Z,96.15
2023-02-21T23:16:58.783Z,96.87
2023-02-21T23:19:27.626Z,96.37
2023-02-21T23:21:55.497Z,96.88
2023-02-21T23:24:23.235Z,96.49
2023-02-21T23:26:52.246Z,96.15
2023-02-21T23:29:23.982Z,97.02
2023-02-21T23:31:52.575Z,97.42
2023-02-21T23:34:19.856Z,100.00
2023-02-21T23:36:49.114Z,100.00
2023-02-21T23:39:16.181Z,100.00
2023-02-21T23:41:48.494Z,100.00
2023-02-21T23:44:16.165Z,100.00
2023-02-21T23:46:44.406Z,100.00
2023-02-21T23:49:16.298Z,100.00
2023-02-21T23:51:44.897Z,100.00
2023-02-21T23:54:15.276Z,100.00
2023-02-21T23:56:47.285Z,100.00
2023-02-21T23:59:15.848Z,100.00
